createdAt,value
2018-11-21T00:02:05.337Z,51.77
2018-11-21T00:04:46.445Z,54.70
2018-11-21T00:07:28.237Z,66.90
2018-11-21T00:10:07.128Z,58.07
2018-11-21T00:12:56.226Z,58.27
2018-11-21T00:15:44.671Z,54.93
2018-11-21T00:18:33.109Z,57.80
2018-11-21T00:21:21.611Z,58.73
2018-11-21T00:24:10.091Z,54.50
2018-11-21T00:26:58.702Z,53.17
2018-11-21T00:29:47.134Z,56.70
2018-11-21T00:32:35.591Z,51.80
2018-11-21T00:35:23.981Z,58.80
2018-11-21T00:41:25.809Z,52.80
2018-11-21T00:44:14.241Z,59.60
2018-11-21T00:47:02.711Z,55.30
2018-11-21T00:49:51.208Z,58.40
2018-11-21T00:52:39.665Z,55.07
2018-11-21T00:55:08.803Z,55.17
2018-11-21T00:57:57.211Z,62.57
2018-11-21T01:00:45.697Z,61.90
2018-11-21T01:03:34.160Z,58.30
2018-11-21T01:06:22.631Z,57.90
2018-11-21T01:09:11.967Z,54.47
2018-11-21T01:15:13.862Z,58.90
2018-11-21T01:18:02.376Z,56.70
2018-11-21T01:20:50.767Z,58.50
2018-11-21T01:23:39.218Z,55.87
2018-11-21T01:26:27.654Z,62.47
2018-11-21T01:29:16.138Z,60.30
2018-11-21T01:32:04.656Z,53.10
2018-11-21T01:34:53.096Z,56.50
2018-11-21T01:37:41.508Z,64.00
2018-11-21T01:40:29.969Z,64.07
2018-11-21T01:43:18.422Z,67.30
2018-11-21T01:46:06.834Z,60.00
2018-11-21T01:48:55.247Z,60.77
2018-11-21T01:51:43.679Z,64.83
2018-11-21T01:54:32.189Z,55.23
2018-11-21T01:57:20.591Z,54.33
2018-11-21T02:03:17.508Z,56.47
2018-11-21T02:06:05.148Z,60.50
2018-11-21T02:08:53.564Z,64.93
2018-11-21T02:11:41.980Z,58.80
2018-11-21T02:14:30.435Z,63.47
2018-11-21T02:17:18.817Z,61.73
2018-11-21T02:23:22.334Z,63.23
2018-11-21T02:26:10.766Z,52.20
2018-11-21T02:28:59.238Z,54.27
2018-11-21T02:31:47.635Z,55.10
2018-11-21T02:34:36.088Z,62.43
2018-11-21T02:40:32.087Z,63.23
2018-11-21T02:43:20.492Z,63.23
2018-11-21T02:49:22.506Z,59.93
2018-11-21T02:52:11.010Z,59.93
2018-11-21T02:55:17.543Z,61.23
2018-11-21T02:58:06.044Z,61.63
2018-11-21T03:00:54.562Z,62.43
2018-11-21T03:03:42.979Z,60.93
2018-11-21T03:06:31.427Z,61.50
2018-11-21T03:09:19.894Z,58.63
2018-11-21T03:12:08.929Z,58.23
2018-11-21T03:14:57.341Z,61.03
2018-11-21T03:20:59.879Z,64.17
2018-11-21T03:27:14.552Z,58.30
2018-11-21T03:30:03.621Z,51.53
2018-11-21T03:32:52.049Z,56.43
2018-11-21T03:35:40.501Z,60.30
2018-11-21T03:38:28.896Z,56.83
2018-11-21T03:41:17.520Z,59.63
2018-11-21T03:44:05.957Z,62.20
2018-11-21T03:46:54.411Z,59.70
2018-11-21T03:49:42.844Z,57.03
2018-11-21T03:52:31.299Z,61.20
2018-11-21T03:55:00.341Z,63.00
2018-11-21T03:57:48.809Z,63.63
2018-11-21T04:00:37.199Z,64.03
2018-11-21T04:03:25.643Z,56.63
2018-11-21T04:06:14.035Z,66.13
2018-11-21T04:09:02.602Z,74.33
2018-11-21T04:11:50.997Z,62.80
2018-11-21T04:14:39.496Z,60.87
2018-11-21T04:17:27.914Z,64.50
2018-11-21T04:20:54.943Z,62.57
2018-11-21T04:23:43.394Z,62.27
2018-11-21T04:29:45.344Z,62.67
2018-11-21T04:32:33.816Z,68.37
2018-11-21T04:38:36.832Z,67.27
2018-11-21T04:41:25.268Z,64.07
2018-11-21T04:44:13.705Z,66.07
2018-11-21T04:49:58.953Z,66.53
2018-11-21T04:52:48.605Z,69.90
2018-11-21T04:55:17.652Z,67.33
2018-11-21T04:58:06.119Z,62.50
2018-11-21T05:00:54.616Z,59.80
2018-11-21T05:03:43.315Z,73.13
2018-11-21T05:06:31.768Z,64.80
2018-11-21T05:09:20.585Z,66.57
2018-11-21T05:12:09.062Z,67.10
2018-11-21T05:14:57.593Z,62.63
2018-11-21T05:17:45.999Z,67.13
2018-11-21T05:20:34.425Z,68.80
2018-11-21T05:23:22.820Z,61.57
2018-11-21T05:26:11.388Z,73.73
2018-11-21T05:28:59.796Z,62.33
2018-11-21T05:31:48.231Z,65.63
2018-11-21T05:34:36.811Z,67.40
2018-11-21T05:40:52.492Z,68.90
2018-11-21T05:43:40.874Z,65.27
2018-11-21T05:46:29.328Z,64.20
2018-11-21T05:49:17.765Z,60.63
2018-11-21T05:52:06.234Z,61.87
2018-11-21T05:54:54.738Z,60.17
2018-11-21T05:57:43.160Z,74.10
2018-11-21T06:00:31.605Z,65.87
2018-11-21T06:03:20.041Z,63.53
2018-11-21T06:06:10.054Z,68.93
2018-11-21T06:09:30.889Z,71.23
2018-11-21T06:12:20.643Z,68.70
2018-11-21T06:18:23.771Z,73.10
2018-11-21T06:24:25.747Z,66.47
2018-11-21T06:27:14.135Z,67.47
2018-11-21T06:30:02.845Z,69.67
2018-11-21T06:32:51.335Z,72.50
2018-11-21T06:35:39.771Z,65.93
2018-11-21T06:38:28.195Z,64.37
2018-11-21T06:41:16.616Z,78.00
2018-11-21T06:44:05.231Z,73.03
2018-11-21T06:50:01.334Z,66.60
2018-11-21T06:52:50.307Z,71.53
2018-11-21T06:55:38.691Z,65.40
2018-11-21T06:58:27.173Z,67.07
2018-11-21T07:01:15.554Z,67.77
2018-11-21T07:04:03.990Z,65.23
2018-11-21T07:06:52.400Z,68.93
2018-11-21T07:09:40.821Z,72.43
2018-11-21T07:12:29.690Z,70.13
2018-11-21T07:15:18.153Z,69.37
2018-11-21T07:18:06.542Z,68.13
2018-11-21T07:20:54.977Z,76.37
2018-11-21T07:23:43.456Z,70.23
2018-11-21T07:26:31.786Z,73.80
2018-11-21T07:29:20.285Z,59.80
2018-11-21T07:32:08.696Z,72.10
2018-11-21T07:34:57.431Z,74.83
2018-11-21T07:37:45.830Z,72.47
2018-11-21T07:40:34.245Z,70.60
2018-11-21T07:43:22.701Z,71.73
2018-11-21T07:46:11.190Z,61.37
2018-11-21T07:48:59.588Z,68.17
2018-11-21T07:51:48.039Z,68.13
2018-11-21T07:54:36.487Z,64.97
2018-11-21T08:01:32.113Z,67.23
2018-11-21T08:04:39.648Z,73.17
2018-11-21T08:07:30.001Z,66.53
2018-11-21T08:10:37.609Z,68.50
2018-11-21T08:13:45.184Z,61.30
2018-11-21T08:16:52.884Z,59.70
2018-11-21T08:20:00.598Z,64.50
2018-11-21T08:23:08.199Z,71.03
2018-11-21T08:26:17.518Z,65.23
2018-11-21T08:29:05.957Z,58.70
2018-11-21T08:31:54.382Z,60.57
2018-11-21T08:34:42.361Z,58.13
2018-11-21T08:37:30.804Z,65.30
2018-11-21T08:43:26.916Z,64.00
2018-11-21T08:46:15.396Z,57.93
2018-11-21T08:49:03.830Z,61.57
2018-11-21T08:51:52.300Z,63.13
2018-11-21T08:54:40.723Z,65.33
2018-11-21T08:57:29.149Z,59.97
2018-11-21T09:00:17.574Z,64.80
2018-11-21T09:03:06.564Z,54.73
2018-11-21T09:05:54.994Z,59.70
2018-11-21T09:18:07.899Z,59.97
2018-11-21T09:24:10.533Z,58.43
2018-11-21T09:26:58.934Z,56.87
2018-11-21T09:29:47.399Z,56.90
2018-11-21T09:32:35.788Z,61.60
2018-11-21T09:35:24.249Z,60.03
2018-11-21T09:38:12.761Z,55.83
2018-11-21T09:41:01.162Z,56.50
2018-11-21T09:43:49.610Z,52.80
2018-11-21T09:46:38.000Z,56.63
2018-11-21T09:49:26.563Z,52.07
2018-11-21T09:52:15.007Z,54.80
2018-11-21T09:55:03.462Z,54.37
2018-11-21T09:57:51.888Z,58.13
2018-11-21T10:00:59.746Z,61.17
2018-11-21T10:03:48.136Z,49.70
2018-11-21T10:06:37.579Z,51.50
2018-11-21T10:09:28.971Z,51.67
2018-11-21T10:12:17.397Z,50.80
2018-11-21T10:18:20.253Z,48.10
2018-11-21T10:21:10.801Z,47.77
2018-11-21T10:23:59.228Z,51.23
2018-11-21T10:26:47.664Z,56.80
2018-11-21T10:29:36.099Z,48.97
2018-11-21T10:32:24.546Z,53.00
2018-11-21T10:35:12.962Z,51.30
2018-11-21T10:38:01.401Z,49.17
2018-11-21T10:40:49.852Z,49.50
2018-11-21T10:43:38.515Z,56.47
2018-11-21T10:46:26.968Z,47.70
2018-11-21T10:49:15.366Z,50.97
2018-11-21T10:52:03.804Z,47.70
2018-11-21T10:57:44.078Z,53.40
2018-11-21T11:00:51.631Z,49.53
2018-11-21T11:03:59.218Z,57.10
2018-11-21T11:07:06.834Z,52.80
2018-11-21T11:13:35.405Z,50.30
2018-11-21T11:16:40.577Z,52.03
2018-11-21T11:19:48.190Z,52.33
2018-11-21T11:26:05.975Z,52.10
2018-11-21T11:29:13.548Z,49.63
2018-11-21T11:32:21.164Z,53.97
2018-11-21T11:39:04.579Z,52.67
2018-11-21T11:42:12.144Z,52.70
2018-11-21T11:45:19.728Z,48.80
2018-11-21T11:51:44.191Z,45.43
2018-11-21T11:54:51.794Z,48.87
2018-11-21T11:57:49.580Z,49.80
2018-11-21T12:00:57.519Z,54.40
2018-11-21T12:04:05.087Z,48.00
2018-11-21T12:07:12.682Z,47.70
2018-11-21T12:10:20.238Z,45.80
2018-11-21T12:13:27.834Z,49.50
2018-11-21T12:19:25.258Z,44.23
2018-11-21T12:22:32.862Z,45.80
2018-11-21T12:25:31.153Z,44.40
2018-11-21T12:28:38.742Z,48.33
2018-11-21T12:31:46.359Z,46.53
2018-11-21T12:34:53.996Z,54.23
2018-11-21T12:38:01.629Z,49.70
2018-11-21T12:41:09.502Z,56.67
2018-11-21T12:44:17.065Z,50.43
2018-11-21T12:47:24.675Z,49.67
2018-11-21T12:50:32.287Z,48.80
2018-11-21T12:53:39.907Z,48.17
2018-11-21T12:56:26.814Z,45.87
2018-11-21T12:59:34.439Z,57.57
2018-11-21T13:02:42.075Z,48.03
2018-11-21T13:05:49.648Z,45.23
2018-11-21T13:08:57.295Z,43.30
2018-11-21T13:12:04.926Z,46.50
2018-11-21T13:15:12.569Z,45.40
2018-11-21T13:18:20.185Z,42.97
2018-11-21T13:21:27.809Z,43.57
2018-11-21T13:24:35.386Z,47.43
2018-11-21T13:27:43.071Z,45.77
2018-11-21T13:30:50.644Z,46.43
2018-11-21T13:37:25.012Z,45.50
2018-11-21T13:40:32.612Z,44.23
2018-11-21T13:43:29.149Z,49.57
2018-11-21T13:49:41.585Z,47.30
2018-11-21T13:52:49.158Z,48.90
2018-11-21T13:55:37.615Z,46.63
2018-11-21T13:58:26.028Z,47.97
2018-11-21T14:01:14.460Z,44.73
2018-11-21T14:04:02.882Z,49.53
2018-11-21T14:06:51.356Z,50.80
2018-11-21T14:09:39.830Z,47.57
2018-11-21T14:12:28.278Z,50.33
2018-11-21T14:15:16.767Z,53.37
2018-11-21T14:18:05.514Z,49.47
2018-11-21T14:20:53.939Z,51.40
2018-11-21T14:23:42.378Z,50.57
2018-11-21T14:26:30.869Z,53.93
2018-11-21T14:29:19.392Z,55.50
2018-11-21T14:32:07.797Z,49.53
2018-11-21T14:34:56.228Z,49.97
2018-11-21T14:37:44.797Z,55.73
2018-11-21T14:40:33.265Z,53.53
2018-11-21T14:43:21.671Z,56.30
2018-11-21T14:46:10.697Z,54.77
2018-11-21T14:48:40.184Z,65.77
2018-11-21T14:51:28.802Z,52.13
2018-11-21T14:54:17.320Z,53.20
2018-11-21T14:57:06.025Z,50.30
2018-11-21T15:02:52.010Z,46.50
2018-11-21T15:05:40.472Z,51.07
2018-11-21T15:08:28.891Z,51.80
2018-11-21T15:11:17.365Z,43.00
2018-11-21T15:14:05.853Z,48.73
2018-11-21T15:20:08.949Z,45.83
2018-11-21T15:22:57.358Z,42.87
2018-11-21T15:25:45.800Z,46.13
2018-11-21T15:28:34.195Z,47.20
2018-11-21T15:31:22.655Z,49.10
2018-11-21T15:37:25.356Z,46.30
2018-11-21T15:40:24.189Z,47.97
2018-11-21T15:43:12.624Z,49.07
2018-11-21T15:46:01.071Z,44.13
2018-11-21T15:48:49.623Z,49.10
2018-11-21T15:51:38.771Z,50.50
2018-11-21T15:54:27.254Z,53.90
2018-11-21T15:57:15.749Z,58.37
2018-11-21T16:00:05.330Z,63.10
2018-11-21T16:02:55.466Z,46.70
2018-11-21T16:05:43.852Z,48.00
2018-11-21T16:08:32.317Z,50.10
2018-11-21T16:11:22.562Z,53.17
2018-11-21T16:14:09.260Z,47.33
2018-11-21T16:16:57.721Z,47.90
2018-11-21T16:19:46.145Z,50.37
2018-11-21T16:22:34.605Z,51.20
2018-11-21T16:31:44.897Z,50.50
2018-11-21T16:34:33.400Z,47.50
2018-11-21T16:37:22.037Z,46.63
2018-11-21T16:40:11.734Z,57.07
2018-11-21T16:46:08.238Z,45.07
2018-11-21T16:48:56.655Z,48.57
2018-11-21T16:51:45.101Z,46.53
2018-11-21T16:54:33.539Z,46.03
2018-11-21T16:57:22.011Z,46.97
2018-11-21T17:00:11.938Z,45.87
2018-11-21T17:03:00.470Z,61.40
2018-11-21T17:05:48.896Z,107.50
2018-11-21T17:08:37.360Z,62.77
2018-11-21T17:11:25.810Z,50.00
2018-11-21T17:14:14.317Z,45.43
2018-11-21T17:17:03.128Z,49.93
2018-11-21T17:19:51.586Z,47.87
2018-11-21T17:22:40.101Z,49.83
2018-11-21T17:25:30.329Z,51.13
2018-11-21T17:28:18.743Z,47.97
2018-11-21T17:31:07.177Z,50.07
2018-11-21T17:33:55.630Z,41.30
2018-11-21T17:36:44.098Z,51.70
2018-11-21T17:39:32.505Z,51.23
2018-11-21T17:42:21.011Z,46.50
2018-11-21T17:45:08.512Z,49.50
2018-11-21T17:51:10.749Z,60.07
2018-11-21T17:56:54.641Z,51.17
2018-11-21T17:59:42.695Z,49.73
2018-11-21T18:05:44.895Z,55.57
2018-11-21T18:08:33.392Z,46.03
2018-11-21T18:11:21.909Z,52.63
2018-11-21T18:14:10.279Z,51.37
2018-11-21T18:16:58.704Z,53.57
2018-11-21T18:19:47.104Z,56.47
2018-11-21T18:25:49.836Z,50.30
2018-11-21T18:31:52.233Z,66.47
2018-11-21T18:34:40.644Z,61.60
2018-11-21T18:37:29.082Z,61.03
2018-11-21T18:40:19.104Z,66.30
2018-11-21T18:43:07.608Z,70.03
2018-11-21T18:49:03.554Z,76.73
2018-11-21T18:51:52.006Z,67.27
2018-11-21T18:54:40.449Z,70.73
2018-11-21T18:57:48.322Z,67.17
2018-11-21T19:00:37.045Z,70.10
2018-11-21T19:03:25.966Z,76.90
2018-11-21T19:06:14.422Z,78.07
2018-11-21T19:09:03.076Z,81.30
2018-11-21T19:15:07.611Z,80.57
2018-11-21T19:17:56.023Z,80.17
2018-11-21T19:20:44.447Z,77.70
2018-11-21T19:23:32.951Z,74.57
2018-11-21T19:26:21.422Z,72.67
2018-11-21T19:29:10.070Z,78.03
2018-11-21T19:31:58.561Z,75.77
2018-11-21T19:34:47.007Z,78.33
2018-11-21T19:37:35.428Z,77.80
2018-11-21T19:40:23.896Z,78.77
2018-11-21T19:46:26.658Z,84.23
2018-11-21T19:52:22.666Z,81.27
2018-11-21T19:55:12.883Z,76.57
2018-11-21T19:57:42.540Z,78.63
2018-11-21T20:00:32.195Z,82.10
2018-11-21T20:03:20.653Z,74.30
2018-11-21T20:06:09.276Z,74.13
2018-11-21T20:08:57.686Z,68.40
2018-11-21T20:18:14.372Z,69.50
2018-11-21T20:21:02.856Z,77.70
2018-11-21T20:23:51.307Z,70.33
2018-11-21T20:26:39.756Z,74.20
2018-11-21T20:29:28.184Z,63.13
2018-11-21T20:32:16.617Z,71.70
2018-11-21T20:35:07.942Z,52.20
2018-11-21T20:37:53.837Z,66.93
2018-11-21T20:43:52.006Z,62.80
2018-11-21T20:49:48.092Z,57.57
2018-11-21T20:52:36.570Z,63.13
2018-11-21T20:58:14.723Z,53.13
2018-11-21T21:01:03.121Z,52.27
2018-11-21T21:03:51.657Z,41.20
2018-11-21T21:06:40.091Z,43.97
2018-11-21T21:09:28.497Z,44.80
2018-11-21T21:12:09.616Z,41.43
2018-11-21T21:14:50.790Z,44.67
2018-11-21T21:17:31.907Z,43.10
2018-11-21T21:20:14.746Z,44.93
2018-11-21T21:22:57.989Z,40.60
2018-11-21T21:25:39.416Z,49.03
2018-11-21T21:28:21.346Z,40.07
2018-11-21T21:31:03.194Z,45.10
2018-11-21T21:33:44.940Z,44.20
2018-11-21T21:36:26.020Z,42.67
2018-11-21T21:39:07.131Z,46.43
2018-11-21T21:41:48.740Z,44.30
2018-11-21T21:44:30.339Z,41.03
2018-11-21T21:47:12.253Z,45.73
2018-11-21T21:50:02.242Z,45.40
2018-11-21T21:52:43.552Z,42.77
2018-11-21T21:55:26.376Z,38.60
2018-11-21T21:58:07.971Z,43.37
2018-11-21T22:00:49.536Z,44.20
2018-11-21T22:03:30.675Z,47.23
2018-11-21T22:06:11.958Z,41.13
2018-11-21T22:08:53.498Z,49.87
2018-11-21T22:11:35.046Z,40.57
2018-11-21T22:14:16.229Z,47.13
2018-11-21T22:16:57.737Z,41.87
2018-11-21T22:19:39.139Z,41.87
2018-11-21T22:22:20.343Z,41.40
2018-11-21T22:25:01.630Z,48.43
2018-11-21T22:27:42.840Z,42.80
2018-11-21T22:30:24.008Z,45.60
2018-11-21T22:33:05.782Z,48.50
2018-11-21T22:35:47.643Z,41.03
2018-11-21T22:38:30.963Z,41.80
2018-11-21T22:41:09.908Z,45.97
2018-11-21T22:43:51.163Z,43.67
2018-11-21T22:46:32.271Z,42.53
2018-11-21T22:49:13.843Z,48.07
2018-11-21T22:51:55.676Z,51.23
2018-11-21T22:54:36.875Z,53.10
2018-11-21T22:57:06.115Z,57.80
2018-11-21T22:59:54.570Z,53.53
2018-11-21T23:02:43.101Z,65.83
2018-11-21T23:05:34.195Z,68.73
2018-11-21T23:08:19.997Z,66.07
2018-11-21T23:11:15.315Z,72.37
2018-11-21T23:14:03.713Z,80.70
2018-11-21T23:16:52.113Z,86.27
2018-11-21T23:19:40.597Z,84.50
2018-11-21T23:22:32.560Z,91.90
2018-11-21T23:25:17.529Z,95.67
2018-11-21T23:28:05.979Z,94.23
2018-11-21T23:30:54.467Z,87.93
2018-11-21T23:33:42.908Z,94.97
2018-11-21T23:36:31.370Z,92.67
2018-11-21T23:39:19.817Z,101.27
2018-11-21T23:42:08.285Z,97.57
2018-11-21T23:44:56.700Z,100.87
2018-11-21T23:47:45.474Z,86.73
2018-11-21T23:50:33.928Z,90.60
2018-11-21T23:53:22.379Z,106.57
2018-11-21T23:56:10.855Z,93.00
2018-11-21T23:58:40.025Z,104.97
